Time;durP1;ratioP1;P1;durP2;ratioP2;P2;SDS_P1;SDS_P2;PMS_P1;PMS_P2;Temp;Humidity;BMP_temperature;BMP_pressure;BME280_temperature;BME280_humidity;BME280_pressure;Samples;Min_cycle;Max_cycle;Signal;HPM_P1;HPM_P2
2021/09/02 00:00:52;;;;;;;4.73;4.07;;;;;;;14.05;74.09;97607.56;5047438;28;20189;-66
2021/09/02 00:03:17;;;;;;;3.60;3.23;;;;;;;13.97;74.71;97607.91;5041658;28;20201;-66
2021/09/02 00:05:42;;;;;;;4.03;3.47;;;;;;;13.97;74.85;97602.66;5039645;28;20527;-67
2021/09/02 00:08:08;;;;;;;4.87;3.67;;;;;;;14.25;73.86;97607.25;5049752;28;20227;-66
2021/09/02 00:10:34;;;;;;;5.13;3.73;;;;;;;14.02;74.81;97607.22;5034616;28;20184;-66
2021/09/02 00:12:59;;;;;;;4.50;3.40;;;;;;;13.76;76.07;97602.38;5043119;28;20194;-66
2021/09/02 00:15:25;;;;;;;3.57;3.27;;;;;;;13.67;76.96;97600.06;5046009;28;20209;-66
2021/09/02 00:17:50;;;;;;;5.67;3.77;;;;;;;13.86;76.39;97602.63;5036558;28;20191;-67
2021/09/02 00:20:16;;;;;;;4.37;3.83;;;;;;;14.09;75.32;97607.94;5049850;28;20186;-66
2021/09/02 00:22:42;;;;;;;6.80;3.93;;;;;;;13.90;76.00;97601.94;5033006;28;20761;-66
2021/09/02 00:25:08;;;;;;;5.13;3.63;;;;;;;13.65;77.06;97601.34;5039601;28;20191;-66
2021/09/02 00:27:33;;;;;;;5.57;3.70;;;;;;;13.88;76.23;97601.34;5047506;28;20204;-66
2021/09/02 00:29:58;;;;;;;4.60;3.73;;;;;;;13.88;76.52;97595.28;5052725;28;20185;-66
2021/09/02 00:32:24;;;;;;;3.90;3.53;;;;;;;13.68;77.10;97601.69;5053275;28;20206;-65
2021/09/02 00:34:49;;;;;;;5.80;3.80;;;;;;;13.66;77.65;97595.81;5046452;28;20200;-65
2021/09/02 00:37:15;;;;;;;4.00;3.60;;;;;;;13.78;77.18;97595.84;5042425;28;20190;-65
2021/09/02 00:39:40;;;;;;;4.33;3.77;;;;;;;14.29;75.09;97599.69;5046892;28;20221;-66
2021/09/02 00:42:06;;;;;;;7.40;4.43;;;;;;;14.31;74.79;97590.50;5042348;28;20235;-65
2021/09/02 00:44:32;;;;;;;4.00;3.60;;;;;;;14.27;74.65;97591.97;5046129;28;20224;-65
2021/09/02 00:46:58;;;;;;;4.93;4.17;;;;;;;14.21;74.82;97590.25;5044402;28;20202;-65
2021/09/02 00:49:23;;;;;;;4.77;3.30;;;;;;;14.11;74.97;97588.22;5044529;28;20190;-65
2021/09/02 00:51:48;;;;;;;5.70;4.10;;;;;;;13.85;76.65;97587.84;5050878;28;20193;-65
2021/09/02 00:54:14;;;;;;;4.10;3.63;;;;;;;13.70;77.25;97588.28;5043938;28;20185;-65
2021/09/02 00:56:39;;;;;;;4.43;4.03;;;;;;;13.65;77.56;97581.03;5033690;28;20186;-66
2021/09/02 00:59:04;;;;;;;5.70;4.27;;;;;;;13.53;78.50;97579.44;5046181;28;20214;-65
2021/09/02 01:01:30;;;;;;;5.53;4.20;;;;;;;13.78;77.31;97580.03;5043199;28;20214;-65
2021/09/02 01:03:55;;;;;;;5.03;4.20;;;;;;;14.10;75.99;97583.16;5051701;28;20801;-67
2021/09/02 01:06:22;;;;;;;4.57;4.07;;;;;;;14.19;75.87;97576.53;5034200;28;20193;-65
2021/09/02 01:08:48;;;;;;;4.83;3.67;;;;;;;14.20;76.05;97574.69;5047711;28;20179;-66
2021/09/02 01:11:14;;;;;;;3.90;3.50;;;;;;;14.10;76.53;97569.97;5041353;28;20289;-65
2021/09/02 01:13:39;;;;;;;4.87;4.10;;;;;;;13.95;77.20;97577.53;5042392;28;20682;-67
2021/09/02 01:16:05;;;;;;;5.40;4.10;;;;;;;13.89;77.54;97568.72;5052604;28;20943;-66
2021/09/02 01:18:30;;;;;;;4.97;3.80;;;;;;;13.92;77.46;97570.09;5052989;28;20180;-66
2021/09/02 01:20:55;;;;;;;4.90;4.07;;;;;;;13.80;78.21;97569.28;5052133;28;20698;-66
2021/09/02 01:23:22;;;;;;;4.73;4.20;;;;;;;13.68;79.01;97575.34;5050781;28;20292;-66
2021/09/02 01:25:48;;;;;;;4.43;3.77;;;;;;;13.65;78.97;97567.88;5031976;28;20182;-66
2021/09/02 01:28:14;;;;;;;5.67;4.07;;;;;;;13.54;79.67;97573.13;5051675;28;20553;-66
2021/09/02 01:30:41;;;;;;;6.13;4.30;;;;;;;13.51;79.92;97570.94;5050629;28;20256;-67
2021/09/02 01:33:08;;;;;;;5.93;4.40;;;;;;;13.24;81.27;97570.53;5047677;28;20595;-66
2021/09/02 01:35:34;;;;;;;10.70;4.40;;;;;;;13.01;82.63;97571.19;5042745;28;20258;-66
2021/09/02 01:38:05;;;;;;;6.67;4.70;;;;;;;12.93;83.37;97568.09;5042941;28;20201;-66
2021/09/02 01:40:43;;;;;;;7.87;4.97;;;;;;;12.89;84.25;97555.34;5035017;28;20667;-66
2021/09/02 01:43:11;;;;;;;5.10;4.37;;;;;;;12.97;83.98;97556.88;5047076;28;20226;-67
2021/09/02 01:45:37;;;;;;;5.57;4.50;;;;;;;13.15;83.53;97559.50;5030819;28;20558;-67
2021/09/02 01:48:04;;;;;;;5.37;4.50;;;;;;;13.36;82.31;97560.84;5041679;28;20178;-67
2021/09/02 01:50:32;;;;;;;5.77;4.73;;;;;;;13.49;81.75;97562.44;5036855;28;20190;-67
2021/09/02 01:52:59;;;;;;;5.70;4.77;;;;;;;13.64;80.97;97561.03;5046131;28;20363;-67
2021/09/02 01:55:26;;;;;;;5.93;4.87;;;;;;;13.52;81.43;97557.56;5029937;28;20194;-67
2021/09/02 01:57:52;;;;;;;6.40;4.40;;;;;;;13.51;81.45;97558.59;5041512;28;20239;-67
2021/09/02 02:00:19;;;;;;;5.83;4.80;;;;;;;13.72;80.59;97557.22;5050412;28;20212;-66
2021/09/02 02:02:44;;;;;;;7.83;4.50;;;;;;;13.58;81.31;97550.59;5035161;28;20230;-66
2021/09/02 02:05:11;;;;;;;6.43;4.80;;;;;;;13.47;81.97;97556.63;5051793;28;20213;-66
2021/09/02 02:07:38;;;;;;;6.23;4.70;;;;;;;13.30;82.82;97562.53;5044825;28;20178;-66
2021/09/02 02:10:06;;;;;;;5.03;4.43;;;;;;;13.21;83.78;97555.16;5044108;28;20189;-66
2021/09/02 02:12:32;;;;;;;5.20;4.10;;;;;;;13.20;83.71;97553.59;5034994;28;20225;-66
2021/09/02 02:14:57;;;;;;;6.70;4.40;;;;;;;13.16;84.05;97552.41;5045376;28;20240;-66
2021/09/02 02:17:23;;;;;;;6.17;4.53;;;;;;;13.03;84.72;97555.19;5038639;28;20247;-66
2021/09/02 02:19:48;;;;;;;6.13;5.03;;;;;;;13.16;84.50;97552.41;5040629;28;20272;-66
2021/09/02 02:22:13;;;;;;;7.17;4.70;;;;;;;13.20;84.40;97553.59;5041373;28;20634;-66
2021/09/02 02:24:39;;;;;;;5.87;4.73;;;;;;;13.05;85.00;97548.66;5034271;28;20248;-66
2021/09/02 02:27:04;;;;;;;6.23;5.07;;;;;;;13.10;84.95;97551.44;5046920;28;20178;-66
2021/09/02 02:29:30;;;;;;;6.20;4.80;;;;;;;12.88;86.01;97552.94;5038778;28;20212;-66
2021/09/02 02:31:56;;;;;;;6.83;5.07;;;;;;;12.96;86.09;97554.47;5039842;28;20269;-66
2021/09/02 02:34:21;;;;;;;7.83;5.17;;;;;;;12.86;86.39;97561.06;5035632;28;20183;-66
2021/09/02 02:36:46;;;;;;;5.00;4.50;;;;;;;12.86;86.32;97545.28;5039031;28;20208;-66
2021/09/02 02:39:12;;;;;;;7.97;5.10;;;;;;;12.86;86.25;97547.94;5039319;28;20197;-66
2021/09/02 02:41:37;;;;;;;6.73;4.97;;;;;;;12.93;85.57;97545.19;5046109;28;20262;-66
2021/09/02 02:44:03;;;;;;;8.10;5.63;;;;;;;13.02;87.13;97550.97;5033583;28;20187;-66
2021/09/02 02:46:29;;;;;;;8.17;6.10;;;;;;;13.08;87.73;97544.81;5045703;28;20521;-66
2021/09/02 02:48:54;;;;;;;8.60;6.10;;;;;;;13.19;87.43;97544.88;5038288;28;20261;-66
2021/09/02 02:51:20;;;;;;;8.63;6.10;;;;;;;13.12;87.05;97544.16;5039025;28;20569;-66
2021/09/02 02:53:45;;;;;;;7.10;5.83;;;;;;;13.11;87.37;97549.59;5032568;28;20214;-66
2021/09/02 02:56:10;;;;;;;10.90;7.07;;;;;;;13.11;87.83;97544.34;5034495;28;20622;-66
2021/09/02 02:58:36;;;;;;;9.37;6.97;;;;;;;12.90;89.32;97545.63;5045289;28;20221;-66
2021/09/02 03:01:01;;;;;;;9.17;6.90;;;;;;;12.82;89.98;97538.03;5039135;28;20655;-66
2021/09/02 03:03:27;;;;;;;8.17;6.23;;;;;;;12.78;89.79;97545.59;5038275;28;20203;-66
2021/09/02 03:05:52;;;;;;;7.03;5.80;;;;;;;12.72;90.35;97548.28;5043906;28;20182;-66
2021/09/02 03:08:17;;;;;;;11.97;6.60;;;;;;;12.63;91.00;97547.00;5039464;28;20209;-66
2021/09/02 03:10:43;;;;;;;8.00;6.27;;;;;;;12.61;91.11;97547.22;5035493;28;20182;-66
2021/09/02 03:13:08;;;;;;;8.10;5.90;;;;;;;12.63;90.84;97547.81;5041407;28;20652;-66
2021/09/02 03:15:34;;;;;;;7.30;5.70;;;;;;;12.63;89.97;97553.06;5043748;28;20193;-66
2021/09/02 03:18:00;;;;;;;7.50;5.60;;;;;;;12.61;89.79;97552.47;5032237;28;20225;-66
2021/09/02 03:20:25;;;;;;;8.17;6.23;;;;;;;12.64;90.13;97556.50;5047298;28;20182;-67
2021/09/02 03:22:51;;;;;;;9.23;6.37;;;;;;;12.61;90.36;97549.03;5030965;28;20202;-66
2021/09/02 03:25:17;;;;;;;7.80;6.53;;;;;;;12.63;90.44;97554.88;5032841;28;20178;-67
2021/09/02 03:27:42;;;;;;;8.50;6.50;;;;;;;12.58;91.23;97549.47;5033791;28;20262;-67
2021/09/02 03:30:09;;;;;;;9.53;7.30;;;;;;;12.41;93.43;97557.16;5051403;28;20182;-66
2021/09/02 03:32:34;;;;;;;10.20;7.87;;;;;;;12.54;93.49;97549.09;5042129;28;20187;-66
2021/09/02 03:35:00;;;;;;;8.63;7.00;;;;;;;12.73;92.41;97547.28;5046810;28;20646;-66
2021/09/02 03:37:25;;;;;;;10.00;7.00;;;;;;;12.45;93.36;97553.88;5037303;28;20706;-66
2021/09/02 03:39:51;;;;;;;8.20;6.80;;;;;;;12.33;94.48;97546.91;5049035;28;20183;-66
2021/09/02 03:42:16;;;;;;;10.10;7.80;;;;;;;12.31;94.91;97554.22;5042661;28;20687;-66
2021/09/02 03:44:42;;;;;;;10.10;7.53;;;;;;;12.26;95.68;97564.59;5042050;28;20182;-66
2021/09/02 03:47:07;;;;;;;10.77;7.73;;;;;;;12.22;96.16;97563.41;5048235;28;20189;-66
2021/09/02 03:49:33;;;;;;;10.23;7.47;;;;;;;12.19;96.43;97556.78;5040943;28;20550;-66
2021/09/02 03:51:58;;;;;;;13.43;7.97;;;;;;;12.18;95.72;97562.25;5042010;28;20274;-66
2021/09/02 03:54:23;;;;;;;9.83;8.07;;;;;;;12.19;96.67;97564.66;5042236;28;20198;-66
2021/09/02 03:56:49;;;;;;;11.10;8.43;;;;;;;12.08;97.18;97557.50;5074881;28;20183;-67
2021/09/02 03:59:14;;;;;;;13.63;10.17;;;;;;;12.37;95.80;97556.00;5049303;28;20182;-67
2021/09/02 04:01:39;;;;;;;13.53;9.50;;;;;;;12.35;95.95;97552.78;5042480;28;20720;-66
2021/09/02 04:04:05;;;;;;;16.07;10.70;;;;;;;12.28;96.82;97550.19;5041456;28;20186;-66
2021/09/02 04:06:30;;;;;;;14.97;10.27;;;;;;;12.08;97.92;97560.94;5049526;28;20193;-67
2021/09/02 04:08:55;;;;;;;13.53;10.47;;;;;;;11.82;99.97;97555.88;5050801;28;20190;-66
2021/09/02 04:11:21;;;;;;;14.07;9.97;;;;;;;11.81;100.00;97556.13;5039867;28;20642;-66
2021/09/02 04:13:46;;;;;;;14.83;10.10;;;;;;;11.70;100.00;97554.97;5044178;28;20269;-66
2021/09/02 04:16:12;;;;;;;14.80;9.40;;;;;;;11.82;100.00;97555.09;5046274;28;20221;-66
2021/09/02 04:18:37;;;;;;;11.10;8.70;;;;;;;11.84;100.00;97558.31;5038433;28;20210;-66
2021/09/02 04:21:04;;;;;;;15.97;9.63;;;;;;;12.03;98.07;97558.16;5051822;28;20779;-66
2021/09/02 04:23:32;;;;;;;15.73;10.00;;;;;;;11.91;99.28;97559.88;5047927;28;20272;-67
2021/09/02 04:25:58;;;;;;;12.10;9.43;;;;;;;11.85;100.00;97557.28;5044834;28;20612;-66
2021/09/02 04:28:24;;;;;;;12.93;9.50;;;;;;;11.71;100.00;97553.13;5037324;28;20182;-66
2021/09/02 04:30:49;;;;;;;14.63;9.73;;;;;;;11.80;100.00;97562.38;5049137;28;20422;-66
2021/09/02 04:33:15;;;;;;;13.83;9.60;;;;;;;11.97;100.00;97559.00;5041574;28;20269;-67
2021/09/02 04:35:40;;;;;;;14.83;10.03;;;;;;;11.98;100.00;97555.34;5042941;28;20756;-66
2021/09/02 04:38:05;;;;;;;13.40;9.00;;;;;;;11.90;100.00;97555.63;5039245;28;20178;-66
2021/09/02 04:40:31;;;;;;;14.17;10.17;;;;;;;11.89;100.00;97545.31;5049859;28;20627;-66
2021/09/02 04:42:56;;;;;;;14.87;9.93;;;;;;;11.79;100.00;97547.66;5036169;28;20225;-67
2021/09/02 04:45:22;;;;;;;13.00;9.87;;;;;;;11.83;100.00;97551.44;5044662;28;20673;-67
2021/09/02 04:47:50;;;;;;;12.03;8.83;;;;;;;11.80;100.00;97554.50;5042036;28;20186;-66
2021/09/02 04:50:15;;;;;;;12.23;8.63;;;;;;;11.86;100.00;97564.97;5047438;28;20627;-66
2021/09/02 04:52:41;;;;;;;11.60;8.93;;;;;;;11.95;99.84;97562.84;5036226;28;20201;-66
2021/09/02 04:55:07;;;;;;;15.83;9.03;;;;;;;12.21;98.36;97559.16;5039741;28;20190;-66
2021/09/02 04:57:32;;;;;;;12.37;9.50;;;;;;;12.13;99.33;97562.91;5045288;28;20199;-67
2021/09/02 04:59:58;;;;;;;9.77;7.87;;;;;;;11.98;99.83;97562.44;5032536;28;20171;-66
2021/09/02 05:02:23;;;;;;;10.37;8.00;;;;;;;12.19;97.81;97561.22;5039373;28;20209;-66
2021/09/02 05:04:49;;;;;;;11.07;8.40;;;;;;;12.45;97.10;97566.19;5041545;28;20275;-66
2021/09/02 05:07:14;;;;;;;12.77;8.57;;;;;;;12.68;96.60;97562.91;5047281;28;20547;-66
2021/09/02 05:09:39;;;;;;;13.23;9.17;;;;;;;12.68;96.53;97560.28;5035545;28;20190;-66
2021/09/02 05:12:05;;;;;;;11.57;8.50;;;;;;;12.76;96.36;97567.88;5046888;28;20190;-66
2021/09/02 05:14:30;;;;;;;8.93;6.93;;;;;;;12.72;96.22;97561.44;5041363;28;20534;-66
2021/09/02 05:16:56;;;;;;;10.47;7.83;;;;;;;13.01;95.03;97560.69;5038647;28;20189;-66
2021/09/02 05:19:21;;;;;;;10.07;6.87;;;;;;;13.27;92.60;97565.59;5047786;28;20213;-66
2021/09/02 05:21:47;;;;;;;9.80;6.83;;;;;;;13.47;90.91;97564.53;5034954;28;20717;-68
2021/09/02 05:24:12;;;;;;;11.10;7.00;;;;;;;13.63;89.44;97563.88;5047198;28;20619;-67
2021/09/02 05:26:37;;;;;;;8.63;6.27;;;;;;;13.61;89.27;97556.19;5039855;28;20191;-67
2021/09/02 05:29:03;;;;;;;10.07;7.00;;;;;;;13.80;88.83;97566.66;5043225;28;20189;-66
2021/09/02 05:31:28;;;;;;;7.97;6.90;;;;;;;14.13;86.63;97562.44;5037066;28;20559;-67
2021/09/02 05:33:54;;;;;;;8.47;6.80;;;;;;;14.33;85.78;97554.16;5041788;28;20178;-67
2021/09/02 05:36:19;;;;;;;10.70;6.47;;;;;;;14.65;84.66;97557.25;5044908;28;20321;-67
2021/09/02 05:38:45;;;;;;;9.60;6.80;;;;;;;14.88;83.09;97566.91;5037048;28;20554;-68
2021/09/02 05:41:10;;;;;;;9.73;6.07;;;;;;;15.02;82.04;97567.44;5038158;28;20240;-67
2021/09/02 05:43:36;;;;;;;8.83;6.50;;;;;;;15.13;81.89;97566.59;5049661;28;20213;-67
2021/09/02 05:46:02;;;;;;;9.93;7.23;;;;;;;15.21;80.92;97566.25;5049318;28;20190;-70
2021/09/02 05:48:27;;;;;;;9.83;6.63;;;;;;;15.35;80.33;97562.25;5034600;28;20237;-67
2021/09/02 05:50:53;;;;;;;12.97;7.20;;;;;;;15.33;80.31;97559.84;5037004;28;20219;-68
2021/09/02 05:53:22;;;;;;;10.00;7.03;;;;;;;15.31;80.75;97558.50;5044294;28;20187;-67
2021/09/02 05:55:50;;;;;;;9.10;6.83;;;;;;;15.37;80.25;97555.72;5045085;28;20201;-67
2021/09/02 05:58:20;;;;;;;9.63;7.20;;;;;;;15.49;79.62;97560.91;5034980;28;20257;-67
2021/09/02 06:00:46;;;;;;;9.20;6.37;;;;;;;15.70;78.61;97554.16;5019690;28;20258;-67
2021/09/02 06:03:11;;;;;;;10.07;6.23;;;;;;;15.85;76.69;97557.03;5034886;28;20312;-67
2021/09/02 06:05:37;;;;;;;9.37;7.07;;;;;;;15.75;77.18;97565.63;5031796;28;20189;-67
2021/09/02 06:08:02;;;;;;;9.03;6.50;;;;;;;15.87;76.98;97568.19;5040510;28;20174;-67
2021/09/02 06:10:28;;;;;;;8.27;6.73;;;;;;;15.97;76.29;97565.69;5037837;28;20588;-68
2021/09/02 06:12:53;;;;;;;12.80;6.87;;;;;;;16.12;75.62;97573.03;5046235;28;20273;-67
2021/09/02 06:15:19;;;;;;;8.83;6.50;;;;;;;16.27;75.65;97572.47;5051203;28;20174;-67
2021/09/02 06:17:44;;;;;;;9.20;6.90;;;;;;;16.40;73.98;97570.28;5044221;28;20189;-67
2021/09/02 06:20:10;;;;;;;7.27;6.37;;;;;;;16.38;73.56;97572.38;5031282;28;20244;-67
2021/09/02 06:22:36;;;;;;;7.53;5.97;;;;;;;16.45;74.22;97570.34;5042894;28;20217;-68
2021/09/02 06:25:02;;;;;;;9.03;6.63;;;;;;;16.52;73.09;97572.81;5043458;28;20177;-68
2021/09/02 06:27:28;;;;;;;9.67;6.30;;;;;;;16.66;72.21;97568.00;5033894;28;20218;-67
2021/09/02 06:29:53;;;;;;;8.93;6.93;;;;;;;15.99;74.63;97574.19;5047007;28;20213;-68
2021/09/02 06:32:19;;;;;;;8.07;6.53;;;;;;;15.98;76.25;97579.72;5036453;28;20181;-67
2021/09/02 06:34:45;;;;;;;8.87;6.47;;;;;;;15.85;77.04;97577.38;5045973;28;20193;-67
2021/09/02 06:37:10;;;;;;;9.73;6.57;;;;;;;15.98;75.80;97583.16;5032864;28;20256;-68
2021/09/02 06:39:36;;;;;;;8.43;6.17;;;;;;;16.21;75.02;97585.63;5047211;28;20178;-68
2021/09/02 06:42:01;;;;;;;7.40;6.23;;;;;;;16.02;74.58;97579.00;5035123;28;20313;-67
2021/09/02 06:44:27;;;;;;;9.07;6.00;;;;;;;15.48;76.17;97583.09;5039528;28;20186;-67
2021/09/02 06:46:52;;;;;;;7.73;6.00;;;;;;;15.83;75.46;97588.19;5044158;28;20178;-67
2021/09/02 06:49:20;;;;;;;7.27;5.87;;;;;;;15.92;76.51;97585.97;5033883;28;20639;-68
2021/09/02 06:51:45;;;;;;;9.77;6.37;;;;;;;16.30;74.42;97586.00;5034720;28;20178;-68
2021/09/02 06:54:11;;;;;;;6.83;5.47;;;;;;;16.34;73.41;97579.19;5016603;28;20671;-68
2021/09/02 06:56:36;;;;;;;6.93;5.27;;;;;;;16.36;73.28;97582.41;5022857;28;20751;-68
2021/09/02 06:59:01;;;;;;;7.17;5.17;;;;;;;16.70;72.94;97580.50;5030766;28;20177;-68
2021/09/02 07:01:27;;;;;;;7.80;5.87;;;;;;;16.58;72.40;97585.06;5035881;28;20703;-68
2021/09/02 07:03:52;;;;;;;7.70;5.40;;;;;;;16.69;71.78;97593.97;5040131;28;20711;-68
2021/09/02 07:06:17;;;;;;;10.00;4.90;;;;;;;16.57;70.36;97592.22;5050636;28;20189;-68
2021/09/02 07:08:43;;;;;;;5.57;4.90;;;;;;;16.35;70.41;97595.84;5045032;28;20189;-68
2021/09/02 07:11:08;;;;;;;8.73;5.10;;;;;;;16.39;71.42;97597.78;5043124;28;20824;-67
2021/09/02 07:13:34;;;;;;;8.23;5.37;;;;;;;16.31;71.06;97600.03;5043088;28;20663;-68
2021/09/02 07:16:00;;;;;;;8.47;5.27;;;;;;;16.32;72.13;97597.16;5043705;28;20189;-68
2021/09/02 07:18:26;;;;;;;8.67;5.20;;;;;;;16.52;71.17;97594.78;5042323;28;20225;-68
2021/09/02 07:20:52;;;;;;;8.33;5.60;;;;;;;16.83;70.90;97585.41;5046459;28;21714;-68
2021/09/02 07:23:18;;;;;;;5.40;4.90;;;;;;;17.00;68.20;97582.69;5039240;28;20677;-68
2021/09/02 07:25:43;;;;;;;6.03;5.03;;;;;;;17.00;69.10;97593.28;5039653;28;20179;-68
2021/09/02 07:28:08;;;;;;;5.60;4.40;;;;;;;16.72;68.66;97599.56;5037593;28;20209;-68
2021/09/02 07:30:34;;;;;;;6.60;4.93;;;;;;;16.90;69.34;97609.06;5038182;28;20198;-68
2021/09/02 07:32:59;;;;;;;7.00;5.33;;;;;;;16.94;69.12;97613.63;5039074;28;20178;-68
2021/09/02 07:35:25;;;;;;;7.70;5.70;;;;;;;17.00;69.43;97607.34;5039917;28;20187;-68
2021/09/02 07:37:50;;;;;;;6.30;4.93;;;;;;;17.28;69.05;97606.31;5040191;28;20198;-68
2021/09/02 07:40:15;;;;;;;7.03;5.00;;;;;;;17.55;69.42;97602.91;5039822;28;20190;-68
2021/09/02 07:42:41;;;;;;;6.60;4.87;;;;;;;17.75;67.32;97597.81;5046906;28;20308;-65
2021/09/02 07:45:08;;;;;;;5.83;5.10;;;;;;;17.93;67.43;97601.94;5038774;28;20540;-65
2021/09/02 07:47:34;;;;;;;6.50;4.97;;;;;;;17.81;66.39;97602.91;5045990;28;20185;-67
2021/09/02 07:50:00;;;;;;;6.87;4.97;;;;;;;17.79;67.12;97610.31;5045896;28;20189;-65
2021/09/02 07:52:26;;;;;;;5.20;4.63;;;;;;;17.96;66.85;97606.72;5041189;28;20723;-67
2021/09/02 07:54:51;;;;;;;8.50;4.50;;;;;;;17.95;67.40;97613.06;5037796;28;20222;-66
2021/09/02 07:57:17;;;;;;;7.57;5.43;;;;;;;17.80;67.67;97613.75;5037896;28;20189;-65
2021/09/02 07:59:42;;;;;;;6.15;4.50;;;;;;;17.42;68.45;97625.31;5038876;28;20193;-65
2021/09/02 08:02:07;;;;;;;7.37;4.97;;;;;;;17.60;68.21;97614.38;5045770;28;20683;-65
2021/09/02 08:04:33;;;;;;;6.20;5.00;;;;;;;17.25;69.04;97617.44;5054022;28;20649;-68
2021/09/02 08:06:58;;;;;;;5.47;4.30;;;;;;;17.37;68.16;97622.59;5044996;28;20329;-68
2021/09/02 08:09:23;;;;;;;6.33;4.83;;;;;;;17.56;67.41;97623.03;5045743;28;20189;-68
2021/09/02 08:11:49;;;;;;;5.10;4.30;;;;;;;17.60;67.11;97617.03;5037382;28;20282;-68
2021/09/02 08:14:15;;;;;;;4.97;4.30;;;;;;;17.67;66.84;97622.13;5049635;28;20202;-68
2021/09/02 08:16:40;;;;;;;5.38;4.45;;;;;;;17.90;65.15;97618.34;5039912;28;20178;-68
2021/09/02 08:19:05;;;;;;;5.15;4.40;;;;;;;18.04;65.50;97619.53;5035637;28;20182;-68
2021/09/02 08:21:31;;;;;;;7.43;4.57;;;;;;;18.28;66.31;97621.56;5034141;28;20274;-68
2021/09/02 08:23:58;;;;;;;6.60;4.00;;;;;;;18.44;65.11;97617.19;5033226;28;20171;-68
2021/09/02 08:26:25;;;;;;;6.88;4.43;;;;;;;18.45;64.31;97625.91;5044284;28;20259;-68
2021/09/02 08:28:51;;;;;;;5.95;4.32;;;;;;;18.64;63.69;97622.63;5042945;28;20186;-68
2021/09/02 08:31:16;;;;;;;4.68;4.05;;;;;;;18.77;63.83;97624.03;5036211;28;20174;-67
2021/09/02 08:33:41;;;;;;;4.75;3.75;;;;;;;18.76;62.77;97627.75;5035507;28;20186;-68
2021/09/02 08:36:07;;;;;;;5.38;4.10;;;;;;;18.75;62.92;97620.81;5045386;28;20179;-68
2021/09/02 08:38:32;;;;;;;5.85;4.40;;;;;;;18.62;62.14;97622.06;5042748;28;20631;-67
2021/09/02 08:40:58;;;;;;;6.13;4.35;;;;;;;18.73;63.07;97624.78;5038177;28;20210;-66
2021/09/02 08:43:24;;;;;;;5.93;3.90;;;;;;;18.74;61.78;97623.72;5048360;28;20264;-66
2021/09/02 08:45:49;;;;;;;6.90;4.35;;;;;;;18.35;64.82;97623.19;5038439;28;20190;-66
2021/09/02 08:48:16;;;;;;;8.93;4.80;;;;;;;18.68;63.19;97617.59;5044247;28;20186;-66
2021/09/02 08:50:42;;;;;;;5.47;4.32;;;;;;;18.76;62.15;97611.00;5049099;28;20268;-66
2021/09/02 08:53:08;;;;;;;6.43;4.43;;;;;;;18.52;63.81;97608.72;5033536;28;20265;-66
2021/09/02 08:55:35;;;;;;;6.10;4.03;;;;;;;18.43;64.33;97615.56;5037982;28;20186;-66
2021/09/02 08:58:01;;;;;;;4.80;3.97;;;;;;;18.61;63.59;97615.16;5045407;28;20643;-66
2021/09/02 09:00:27;;;;;;;4.95;4.45;;;;;;;18.16;63.82;97620.97;5042989;28;20603;-66
2021/09/02 09:03:02;;;;;;;5.20;4.30;;;;;;;18.18;63.36;97620.69;5032941;28;20202;-67
2021/09/02 09:05:34;;;;;;;4.72;4.03;;;;;;;17.93;63.98;97610.69;5041456;28;20181;-65
2021/09/02 09:08:00;;;;;;;6.57;4.57;;;;;;;18.06;64.96;97610.25;5038472;28;20171;-66
2021/09/02 09:10:28;;;;;;;4.88;4.05;;;;;;;18.24;63.85;97607.22;5049102;28;20190;-66
2021/09/02 09:12:58;;;;;;;5.78;4.72;;;;;;;18.26;64.45;97609.63;5020051;28;20588;-67
2021/09/02 09:15:25;;;;;;;5.88;4.60;;;;;;;18.46;64.26;97608.94;5044671;28;20186;-66
2021/09/02 09:17:53;;;;;;;6.30;4.25;;;;;;;18.45;63.74;97610.78;5036052;28;20223;-65
2021/09/02 09:20:20;;;;;;;4.85;4.03;;;;;;;18.46;63.45;97607.09;5037269;28;20538;-66
2021/09/02 09:23:04;;;;;;;4.88;4.25;;;;;;;18.49;64.44;97603.13;5023939;28;20259;-66
2021/09/02 09:25:29;;;;;;;7.13;4.30;;;;;;;18.68;64.09;97609.63;5036764;28;20178;-65
2021/09/02 09:27:59;;;;;;;5.70;4.45;;;;;;;18.92;62.38;97597.53;5037729;28;20193;-67
2021/09/02 09:30:27;;;;;;;5.38;4.40;;;;;;;18.98;62.32;97599.16;5040931;28;20670;-66
2021/09/02 09:32:56;;;;;;;5.28;4.43;;;;;;;18.76;63.86;97601.19;5039951;28;20284;-66
2021/09/02 09:35:26;;;;;;;5.90;4.53;;;;;;;18.99;63.55;97594.66;5041845;28;20718;-66
2021/09/02 09:38:15;;;;;;;4.40;4.00;;;;;;;18.87;62.22;97596.72;5036854;28;20206;-66
2021/09/02 09:40:51;;;;;;;8.93;3.72;;;;;;;19.21;62.13;97586.47;5019858;28;20252;-66
2021/09/02 09:43:24;;;;;;;7.63;4.22;;;;;;;19.35;59.50;97587.56;5042151;28;20746;-66
2021/09/02 09:45:54;;;;;;;6.28;4.40;;;;;;;19.41;60.04;97589.16;5035954;28;20717;-65
2021/09/02 09:48:19;;;;;;;5.25;4.07;;;;;;;19.38;59.99;97587.03;5034442;28;20182;-65
2021/09/02 09:50:46;;;;;;;5.50;4.05;;;;;;;19.35;60.65;97579.59;5043021;28;20228;-65
2021/09/02 09:53:27;;;;;;;4.60;3.97;;;;;;;18.96;60.06;97580.00;5030387;28;20285;-65
2021/09/02 09:55:53;;;;;;;5.18;3.95;;;;;;;18.79;60.92;97574.09;5047228;28;20224;-66
2021/09/02 09:58:23;;;;;;;5.22;4.07;;;;;;;18.86;61.70;97579.97;5034447;28;20187;-66
2021/09/02 10:00:52;;;;;;;7.72;4.25;;;;;;;18.99;61.01;97574.19;5052161;28;20184;-65
2021/09/02 10:03:19;;;;;;;4.57;3.80;;;;;;;19.13;59.16;97573.69;5041283;28;20211;-65
2021/09/02 10:05:47;;;;;;;4.88;4.05;;;;;;;19.08;60.05;97571.81;5044967;28;20182;-65
2021/09/02 10:08:12;;;;;;;5.38;3.92;;;;;;;18.83;58.96;97569.06;5035358;28;20687;-65
2021/09/02 10:10:38;;;;;;;5.30;3.70;;;;;;;18.58;59.76;97575.06;5047824;28;20186;-65
2021/09/02 10:13:03;;;;;;;6.03;4.35;;;;;;;18.57;60.10;97576.09;5032030;28;20233;-65
2021/09/02 10:15:30;;;;;;;6.85;4.30;;;;;;;19.03;59.58;97567.28;5041755;28;20288;-65
2021/09/02 10:17:56;;;;;;;5.32;3.90;;;;;;;18.96;58.10;97563.25;5044666;28;20182;-67
2021/09/02 10:20:25;;;;;;;4.82;3.50;;;;;;;18.94;58.09;97568.84;5036830;28;20297;-64
2021/09/02 10:22:56;;;;;;;4.18;3.67;;;;;;;19.08;56.57;97566.50;5045918;28;20202;-64
2021/09/02 10:25:34;;;;;;;4.22;3.47;;;;;;;19.18;58.36;97560.41;5019314;28;20166;-64
2021/09/02 10:28:00;;;;;;;5.18;3.70;;;;;;;19.06;57.21;97565.94;5041527;28;20717;-65
2021/09/02 10:30:27;;;;;;;5.40;3.70;;;;;;;19.25;57.60;97567.06;5034827;28;20237;-65
2021/09/02 10:32:54;;;;;;;5.53;3.88;;;;;;;19.37;55.89;97554.34;5038326;28;20194;-64
2021/09/02 10:35:19;;;;;;;6.25;3.90;;;;;;;19.26;56.31;97547.41;5041456;28;20674;-64
2021/09/02 10:37:44;;;;;;;4.60;3.72;;;;;;;19.51;56.65;97552.78;5043370;28;20190;-65
2021/09/02 10:40:16;;;;;;;4.10;3.22;;;;;;;19.67;55.64;97558.13;5036098;28;20193;-65
2021/09/02 10:42:48;;;;;;;5.78;3.72;;;;;;;19.77;55.23;97550.16;5048143;28;20885;-65
2021/09/02 10:45:26;;;;;;;5.53;3.20;;;;;;;19.79;54.20;97551.47;5037947;28;20209;-65
2021/09/02 10:48:00;;;;;;;3.60;3.30;;;;;;;19.95;53.33;97551.47;5050519;28;20193;-65
2021/09/02 10:50:34;;;;;;;3.78;3.20;;;;;;;19.87;54.05;97540.31;5039638;28;20247;-65
2021/09/02 10:53:14;;;;;;;3.55;3.22;;;;;;;19.60;54.27;97537.13;5034351;28;20199;-67
2021/09/02 10:55:51;;;;;;;6.63;3.72;;;;;;;19.99;54.31;97542.69;5038041;28;20185;-66
2021/09/02 10:58:39;;;;;;;3.35;3.05;;;;;;;20.09;53.75;97541.88;5039793;28;20173;-65
2021/09/02 11:01:22;;;;;;;4.55;3.08;;;;;;;20.33;52.56;97543.72;5021949;28;20175;-65
2021/09/02 11:03:49;;;;;;;4.28;2.90;;;;;;;20.18;53.15;97535.72;5033078;28;20206;-65
2021/09/02 11:06:15;;;;;;;3.42;3.13;;;;;;;20.12;51.32;97533.34;5041329;28;20194;-66
2021/09/02 11:08:41;;;;;;;3.58;3.17;;;;;;;20.15;52.00;97538.13;5043188;28;20182;-65
2021/09/02 11:11:21;;;;;;;3.65;2.85;;;;;;;20.04;51.87;97529.38;5041166;28;20197;-65
2021/09/02 11:13:49;;;;;;;6.25;3.47;;;;;;;19.99;51.96;97534.69;5034728;28;20194;-65
2021/09/02 11:16:16;;;;;;;2.83;2.63;;;;;;;20.06;51.39;97521.91;5048406;28;20190;-65
2021/09/02 11:18:48;;;;;;;4.00;2.80;;;;;;;20.15;51.85;97520.31;5043265;28;20187;-65
2021/09/02 11:21:25;;;;;;;4.28;2.97;;;;;;;20.24;50.26;97526.66;5041955;28;20647;-64
2021/09/02 11:24:11;;;;;;;3.03;2.65;;;;;;;20.44;51.42;97527.72;5034116;28;20206;-65
2021/09/02 11:26:42;;;;;;;3.13;2.70;;;;;;;20.39;50.10;97525.06;5043785;28;20253;-64
2021/09/02 11:29:09;;;;;;;4.65;2.92;;;;;;;20.30;50.99;97514.94;5049565;28;20223;-64